Time;durP1;ratioP1;P1;durP2;ratioP2;P2;SDS_P1;SDS_P2;PMS_P1;PMS_P2;Temp;Humidity;BMP_temperature;BMP_pressure;BME280_temperature;BME280_humidity;BME280_pressure;Samples;Min_cycle;Max_cycle;Signal;HPM_P1;HPM_P2
2022/07/10 00:01:26;;;;;;;2.83;1.50;;;20.00;47.30;;;;;;5044146;28;20257;-44
2022/07/10 00:03:54;;;;;;;8.63;1.30;;;19.90;47.00;;;;;;5035200;28;20181;-45
2022/07/10 00:06:20;;;;;;;2.70;1.45;;;19.90;46.80;;;;;;5034753;28;20177;-47
2022/07/10 00:08:46;;;;;;;2.38;1.63;;;19.80;47.10;;;;;;5034993;28;20193;-46
2022/07/10 00:11:12;;;;;;;1.87;1.33;;;19.70;46.90;;;;;;5035040;28;20537;-46
2022/07/10 00:13:39;;;;;;;2.10;0.90;;;19.70;47.70;;;;;;5034980;28;20174;-45
2022/07/10 00:16:05;;;;;;;3.25;1.42;;;19.70;47.00;;;;;;5034828;28;20288;-45
2022/07/10 00:18:31;;;;;;;3.28;1.63;;;19.60;47.60;;;;;;5034870;28;20268;-44
2022/07/10 00:20:56;;;;;;;3.50;1.73;;;19.60;47.40;;;;;;5034781;28;20162;-46
2022/07/10 00:23:22;;;;;;;2.03;1.23;;;19.60;47.40;;;;;;5034832;28;20166;-45
2022/07/10 00:25:48;;;;;;;2.23;1.00;;;19.50;47.30;;;;;;5034681;28;20333;-46
2022/07/10 00:28:14;;;;;;;3.93;1.50;;;19.50;46.90;;;;;;5034675;28;20927;-46
2022/07/10 00:30:40;;;;;;;2.50;1.40;;;19.40;46.90;;;;;;5034919;28;20186;-47
2022/07/10 00:33:05;;;;;;;5.27;1.43;;;19.40;46.70;;;;;;5034595;28;20173;-45
2022/07/10 00:35:31;;;;;;;5.60;1.23;;;19.30;46.90;;;;;;5034263;28;20209;-44
2022/07/10 00:37:57;;;;;;;3.90;1.10;;;19.30;46.60;;;;;;5034354;28;20225;-46
2022/07/10 00:40:23;;;;;;;2.57;1.53;;;19.20;46.70;;;;;;5035008;28;20193;-46
2022/07/10 00:42:49;;;;;;;2.97;1.33;;;19.20;46.90;;;;;;5034639;28;20174;-46
2022/07/10 00:45:15;;;;;;;3.97;1.58;;;19.20;46.50;;;;;;5034364;28;20444;-46
2022/07/10 00:47:41;;;;;;;2.93;1.33;;;19.20;46.50;;;;;;5034202;28;20681;-46
2022/07/10 00:50:07;;;;;;;1.80;1.10;;;19.10;46.70;;;;;;5034306;28;20289;-46
2022/07/10 00:52:38;;;;;;;6.20;1.02;;;19.10;46.60;;;;;;5034277;28;20223;-46
2022/07/10 00:55:09;;;;;;;2.58;1.40;;;19.10;47.00;;;;;;5034108;28;20655;-43
2022/07/10 00:57:37;;;;;;;5.40;1.35;;;19.00;46.80;;;;;;5034310;28;20162;-43
2022/07/10 01:00:04;;;;;;;6.13;1.50;;;19.00;46.80;;;;;;5033901;28;20214;-43
2022/07/10 01:02:30;;;;;;;2.22;1.33;;;19.00;47.10;;;;;;5034030;28;20198;-43
2022/07/10 01:04:59;;;;;;;4.63;1.33;;;19.00;47.10;;;;;;5033976;28;20216;-44
2022/07/10 01:07:25;;;;;;;3.55;1.55;;;19.00;46.90;;;;;;5032908;28;20174;-42
2022/07/10 01:09:50;;;;;;;1.92;0.95;;;19.00;46.70;;;;;;5033811;28;20202;-42
2022/07/10 01:12:17;;;;;;;1.90;1.03;;;19.00;46.80;;;;;;5033858;28;20174;-44
2022/07/10 01:14:44;;;;;;;2.10;1.20;;;19.00;46.80;;;;;;5034028;28;20205;-44
2022/07/10 01:17:11;;;;;;;2.90;1.30;;;19.00;46.30;;;;;;5033491;28;20650;-44
2022/07/10 01:19:37;;;;;;;1.95;0.88;;;18.90;46.20;;;;;;5033587;28;20225;-44
2022/07/10 01:22:03;;;;;;;4.22;1.15;;;18.90;46.30;;;;;;5033819;28;20209;-44
2022/07/10 01:24:29;;;;;;;4.00;1.13;;;18.90;47.10;;;;;;5033627;28;20166;-44
2022/07/10 01:26:55;;;;;;;2.40;1.00;;;18.90;46.40;;;;;;5033405;28;20177;-44
2022/07/10 01:29:22;;;;;;;2.53;1.03;;;18.90;46.30;;;;;;5033514;28;20320;-44
2022/07/10 01:31:48;;;;;;;4.57;1.38;;;18.90;46.30;;;;;;5033417;28;20171;-44
2022/07/10 01:34:13;;;;;;;2.10;1.30;;;18.90;46.60;;;;;;5033325;28;20174;-45
2022/07/10 01:36:40;;;;;;;5.33;1.67;;;18.90;46.70;;;;;;5033311;28;20168;-44
2022/07/10 01:39:06;;;;;;;4.13;1.10;;;18.90;46.60;;;;;;5033286;28;20428;-45
2022/07/10 01:41:33;;;;;;;3.95;1.83;;;18.90;46.30;;;;;;5033253;28;20178;-45
2022/07/10 01:43:59;;;;;;;2.35;1.30;;;18.90;46.30;;;;;;5033266;28;20178;-44
2022/07/10 01:46:25;;;;;;;3.93;1.53;;;18.90;46.50;;;;;;5033093;28;20256;-45
2022/07/10 01:48:51;;;;;;;2.17;1.40;;;18.90;46.00;;;;;;5033307;28;20487;-46
2022/07/10 01:51:17;;;;;;;3.40;1.23;;;18.80;45.80;;;;;;5033135;28;20182;-44
2022/07/10 01:53:43;;;;;;;5.43;0.90;;;18.80;45.50;;;;;;5015417;28;20504;-43
2022/07/10 01:56:12;;;;;;;1.60;0.82;;;18.80;45.40;;;;;;5032806;28;20201;-44
2022/07/10 01:58:38;;;;;;;1.70;0.90;;;18.80;45.70;;;;;;5032801;28;20716;-44
2022/07/10 02:01:05;;;;;;;5.97;1.92;;;18.70;46.10;;;;;;5032855;28;20185;-44
2022/07/10 02:06:16;;;;;;;2.63;1.48;;;18.70;46.10;;;;;;5032977;28;20245;-46
2022/07/10 02:08:42;;;;;;;5.20;1.15;;;18.70;46.10;;;;;;5032716;28;20190;-46
2022/07/10 02:11:12;;;;;;;1.70;1.00;;;18.70;46.20;;;;;;5032813;28;20204;-45
2022/07/10 02:13:38;;;;;;;5.50;1.20;;;18.80;46.30;;;;;;5032706;28;20169;-46
2022/07/10 02:16:04;;;;;;;2.03;1.25;;;18.70;46.20;;;;;;5032418;28;20201;-45
2022/07/10 02:18:32;;;;;;;2.10;1.02;;;18.70;46.20;;;;;;5032184;28;20189;-46
2022/07/10 02:20:57;;;;;;;2.03;0.85;;;18.80;45.50;;;;;;5032670;28;20170;-45
2022/07/10 02:23:23;;;;;;;2.30;1.47;;;18.80;45.60;;;;;;5032574;28;20174;-45
2022/07/10 02:25:49;;;;;;;4.30;1.10;;;18.80;45.60;;;;;;5032350;28;20953;-44
2022/07/10 02:28:15;;;;;;;3.23;1.20;;;18.80;45.00;;;;;;5032449;28;20557;-46
2022/07/10 02:30:42;;;;;;;6.50;1.03;;;18.70;44.90;;;;;;5032473;28;20661;-46
2022/07/10 02:33:07;;;;;;;2.08;1.10;;;18.70;44.60;;;;;;5032379;28;20260;-46
2022/07/10 02:35:33;;;;;;;2.73;1.00;;;18.70;45.00;;;;;;5032097;28;20796;-44
2022/07/10 02:37:59;;;;;;;2.27;1.13;;;18.60;44.80;;;;;;5032272;28;20252;-45
2022/07/10 02:40:25;;;;;;;3.97;1.10;;;18.60;44.80;;;;;;5032286;28;20165;-45
2022/07/10 02:42:50;;;;;;;3.43;0.90;;;18.70;45.00;;;;;;5032289;28;20166;-46
2022/07/10 02:45:16;;;;;;;3.87;1.13;;;18.60;44.70;;;;;;5032222;28;20170;-45
2022/07/10 02:47:42;;;;;;;2.23;1.23;;;18.60;44.50;;;;;;5032121;28;20539;-46
2022/07/10 02:50:09;;;;;;;4.00;1.37;;;18.60;44.90;;;;;;5032081;28;20190;-44
2022/07/10 02:52:35;;;;;;;5.88;1.23;;;18.60;44.70;;;;;;5032418;28;20177;-43
2022/07/10 02:55:01;;;;;;;1.73;1.02;;;18.60;45.10;;;;;;5032273;28;20205;-43
2022/07/10 02:57:27;;;;;;;4.57;1.70;;;18.60;45.20;;;;;;5031864;28;20181;-45
2022/07/10 02:59:53;;;;;;;2.55;1.08;;;18.60;45.10;;;;;;5031983;28;20277;-43
2022/07/10 03:02:19;;;;;;;2.87;0.93;;;18.60;45.20;;;;;;5031984;28;20265;-43
2022/07/10 03:04:45;;;;;;;3.37;1.10;;;18.60;45.10;;;;;;5032020;28;20421;-44
2022/07/10 03:07:10;;;;;;;2.83;1.33;;;18.60;44.90;;;;;;5031851;28;20228;-43
2022/07/10 03:09:36;;;;;;;3.50;1.07;;;18.60;44.30;;;;;;5031944;28;20185;-43
2022/07/10 03:12:02;;;;;;;4.23;1.00;;;18.60;44.50;;;;;;5032092;28;20261;-43
2022/07/10 03:14:28;;;;;;;2.10;1.10;;;18.60;44.60;;;;;;5031882;28;20251;-44
2022/07/10 03:16:54;;;;;;;2.93;1.37;;;18.60;44.20;;;;;;5031613;28;20894;-42
2022/07/10 03:19:19;;;;;;;2.63;1.17;;;18.60;43.80;;;;;;5031782;28;20200;-43
2022/07/10 03:21:45;;;;;;;2.30;1.03;;;18.50;43.90;;;;;;5031858;28;20170;-43
2022/07/10 03:24:11;;;;;;;2.03;1.07;;;18.50;43.70;;;;;;5031816;28;20174;-43
2022/07/10 03:26:37;;;;;;;2.17;0.93;;;18.50;43.90;;;;;;5031500;28;20876;-43
2022/07/10 03:29:03;;;;;;;3.17;1.30;;;18.50;43.60;;;;;;5031910;28;20284;-42
2022/07/10 03:31:29;;;;;;;3.00;1.07;;;18.40;44.10;;;;;;5035404;28;20174;-42
2022/07/10 03:33:55;;;;;;;2.80;1.30;;;18.50;44.30;;;;;;5035695;28;20265;-44
2022/07/10 03:36:20;;;;;;;2.13;1.10;;;18.40;44.20;;;;;;5035333;28;20247;-44
2022/07/10 03:38:46;;;;;;;5.33;1.37;;;18.50;44.20;;;;;;5035488;28;20416;-44
2022/07/10 03:41:13;;;;;;;2.10;1.00;;;18.50;44.30;;;;;;5035772;28;20184;-43
2022/07/10 03:43:39;;;;;;;2.42;1.80;;;18.50;44.10;;;;;;5035569;28;20165;-43
2022/07/10 03:46:05;;;;;;;2.10;1.10;;;18.50;44.20;;;;;;5035512;28;20186;-43
2022/07/10 03:48:30;;;;;;;2.90;0.73;;;18.50;44.20;;;;;;5035490;28;20225;-45
2022/07/10 03:50:58;;;;;;;2.78;1.08;;;18.50;44.30;;;;;;5035632;28;20470;-43
2022/07/10 03:53:24;;;;;;;2.10;1.13;;;18.50;44.10;;;;;;5035302;28;20641;-42
2022/07/10 03:55:50;;;;;;;4.33;1.40;;;18.50;44.50;;;;;;5035081;28;20225;-42
2022/07/10 03:58:15;;;;;;;2.67;1.20;;;18.50;44.70;;;;;;5035302;28;20792;-45
2022/07/10 04:00:42;;;;;;;2.23;1.20;;;18.50;44.50;;;;;;5035360;28;20550;-45
2022/07/10 04:03:08;;;;;;;3.47;1.30;;;18.50;44.50;;;;;;5035149;28;20182;-45
2022/07/10 04:05:34;;;;;;;4.95;1.50;;;18.60;44.40;;;;;;5034929;28;20704;-45
2022/07/10 04:08:02;;;;;;;2.45;1.00;;;18.60;44.20;;;;;;5034969;28;20518;-46
2022/07/10 04:10:29;;;;;;;2.35;1.23;;;18.50;44.40;;;;;;5035038;28;20174;-45
2022/07/10 04:12:56;;;;;;;2.83;1.00;;;18.50;44.50;;;;;;5034943;28;20664;-45
2022/07/10 04:15:22;;;;;;;4.80;1.05;;;18.50;44.60;;;;;;5035055;28;20264;-45
2022/07/10 04:17:48;;;;;;;4.10;1.27;;;18.50;44.50;;;;;;5034654;28;20177;-44
2022/07/10 04:20:16;;;;;;;2.22;0.90;;;18.60;44.30;;;;;;5034748;28;20669;-46
2022/07/10 04:22:42;;;;;;;1.50;0.70;;;18.60;43.90;;;;;;5034990;28;20174;-46
2022/07/10 04:25:08;;;;;;;4.40;1.20;;;18.50;44.00;;;;;;5035022;28;20212;-45
2022/07/10 04:27:34;;;;;;;3.55;1.30;;;18.60;44.00;;;;;;5034532;28;20178;-46
2022/07/10 04:30:01;;;;;;;1.70;0.90;;;18.60;44.10;;;;;;5034795;28;20194;-45
2022/07/10 04:32:27;;;;;;;2.90;1.35;;;18.60;43.80;;;;;;5034952;28;20174;-45
2022/07/10 04:34:54;;;;;;;5.70;0.95;;;18.60;43.80;;;;;;5034771;28;20747;-45
2022/07/10 04:37:20;;;;;;;5.35;1.05;;;18.60;43.70;;;;;;5034312;28;20216;-45
2022/07/10 04:39:45;;;;;;;3.80;1.20;;;18.60;43.70;;;;;;5034440;28;20190;-46
2022/07/10 04:42:11;;;;;;;2.53;1.10;;;18.60;43.90;;;;;;5034543;28;20487;-44
2022/07/10 04:44:37;;;;;;;2.42;1.55;;;18.60;43.80;;;;;;5034492;28;20178;-43
2022/07/10 04:47:04;;;;;;;2.20;1.10;;;18.70;43.20;;;;;;5034258;28;20669;-42
2022/07/10 04:49:30;;;;;;;1.50;0.77;;;18.70;43.60;;;;;;5034272;28;20447;-43
2022/07/10 04:51:58;;;;;;;7.53;1.57;;;18.70;43.30;;;;;;5034188;28;20657;-44
2022/07/10 04:54:25;;;;;;;2.10;1.40;;;18.70;43.50;;;;;;5034162;28;20271;-43
2022/07/10 04:56:50;;;;;;;3.45;1.10;;;18.70;43.60;;;;;;5034202;28;20177;-42
2022/07/10 04:59:16;;;;;;;1.70;0.83;;;18.80;43.50;;;;;;5033843;28;20296;-42
2022/07/10 05:01:42;;;;;;;3.20;0.97;;;18.80;43.60;;;;;;5034122;28;20415;-42
2022/07/10 05:04:11;;;;;;;4.23;1.30;;;18.90;43.60;;;;;;5034063;28;20662;-43
2022/07/10 05:06:37;;;;;;;3.17;1.33;;;18.90;43.60;;;;;;5034002;28;20635;-42
2022/07/10 05:09:03;;;;;;;2.47;0.80;;;18.90;43.50;;;;;;5033914;28;20232;-43
2022/07/10 05:11:29;;;;;;;2.60;1.10;;;18.90;43.90;;;;;;5034202;28;20290;-46
2022/07/10 05:13:55;;;;;;;2.00;1.00;;;19.00;43.20;;;;;;5033894;28;20212;-42
2022/07/10 05:16:20;;;;;;;2.67;0.87;;;19.00;43.10;;;;;;5033591;28;20237;-42
2022/07/10 05:18:46;;;;;;;3.20;1.20;;;19.00;42.70;;;;;;5033641;28;20209;-44
2022/07/10 05:21:12;;;;;;;3.13;1.20;;;19.00;43.00;;;;;;5034034;28;20173;-45
2022/07/10 05:23:39;;;;;;;2.17;0.80;;;18.90;43.10;;;;;;5033964;28;20666;-44
2022/07/10 05:26:05;;;;;;;3.78;0.82;;;18.90;43.30;;;;;;5033422;28;20412;-43
2022/07/10 05:28:31;;;;;;;2.00;0.80;;;18.90;42.90;;;;;;5033543;28;20201;-45
2022/07/10 05:30:57;;;;;;;2.73;0.87;;;19.00;43.30;;;;;;5033487;28;20692;-44
2022/07/10 05:33:23;;;;;;;1.83;0.85;;;19.00;42.70;;;;;;5033546;28;20200;-45
2022/07/10 05:35:48;;;;;;;4.13;1.03;;;19.00;42.20;;;;;;5033424;28;20674;-43
2022/07/10 05:38:15;;;;;;;3.53;0.70;;;19.00;42.90;;;;;;5033360;28;20285;-43
2022/07/10 05:40:41;;;;;;;3.95;1.20;;;19.00;43.10;;;;;;5033603;28;20174;-44
2022/07/10 05:43:06;;;;;;;3.72;1.02;;;19.10;43.20;;;;;;5033268;28;20200;-44
2022/07/10 05:45:32;;;;;;;2.77;1.30;;;19.10;43.20;;;;;;5033120;28;20663;-43
2022/07/10 05:47:58;;;;;;;1.63;0.97;;;19.10;43.10;;;;;;5033047;28;20178;-41
2022/07/10 05:50:24;;;;;;;1.73;0.80;;;19.10;43.00;;;;;;5033552;28;20170;-43
2022/07/10 05:52:50;;;;;;;4.67;1.20;;;19.10;42.80;;;;;;5037802;28;20170;-43
2022/07/10 05:55:15;;;;;;;2.00;0.73;;;19.10;42.50;;;;;;5037303;28;20486;-44
2022/07/10 05:57:41;;;;;;;1.67;0.70;;;19.10;43.10;;;;;;5036252;28;20174;-42
2022/07/10 06:00:08;;;;;;;2.85;0.47;;;19.10;43.70;;;;;;5037521;28;20212;-43
2022/07/10 06:02:34;;;;;;;3.05;0.57;;;19.10;42.40;;;;;;5037470;28;20182;-42
2022/07/10 06:05:00;;;;;;;1.70;0.80;;;19.10;42.80;;;;;;5036078;28;20170;-45
2022/07/10 06:07:27;;;;;;;2.00;0.77;;;19.10;43.20;;;;;;5036032;28;20423;-43
2022/07/10 06:09:55;;;;;;;4.85;1.23;;;19.10;42.70;;;;;;5035571;28;20950;-44
2022/07/10 06:12:21;;;;;;;1.70;0.90;;;19.10;42.30;;;;;;5032685;28;20715;-43
2022/07/10 06:14:46;;;;;;;2.10;0.80;;;19.10;42.80;;;;;;5032710;28;20692;-42
2022/07/10 06:17:12;;;;;;;1.60;0.60;;;19.10;42.70;;;;;;5052978;22;20229;-46
2022/07/10 06:19:38;;;;;;;1.57;0.70;;;19.10;42.80;;;;;;5052791;28;20173;-46
2022/07/10 06:24:48;;;;;;;4.35;1.25;;;19.30;43.80;;;;;;5052796;28;20549;-45
2022/07/10 06:27:14;;;;;;;1.97;0.80;;;19.30;42.80;;;;;;5052117;28;20193;-45
2022/07/10 06:29:40;;;;;;;2.30;1.00;;;19.40;42.40;;;;;;5052574;28;20628;-45
2022/07/10 06:32:06;;;;;;;1.60;0.80;;;19.40;42.80;;;;;;5034776;28;20170;-45
2022/07/10 06:34:32;;;;;;;1.83;0.88;;;19.40;42.50;;;;;;5052222;28;20205;-45
2022/07/10 06:36:58;;;;;;;2.27;0.83;;;19.40;43.20;;;;;;5051929;28;20282;-45
2022/07/10 06:39:24;;;;;;;3.13;1.30;;;19.50;43.00;;;;;;5052272;28;20169;-44
2022/07/10 06:41:49;;;;;;;5.43;0.83;;;19.50;43.00;;;;;;5052155;28;20169;-46
2022/07/10 06:44:15;;;;;;;1.73;0.67;;;19.40;43.00;;;;;;5052623;28;20161;-45
2022/07/10 06:46:41;;;;;;;2.30;0.83;;;19.50;43.40;;;;;;5052045;28;20659;-45
2022/07/10 06:49:08;;;;;;;1.50;0.93;;;19.60;43.40;;;;;;5052402;28;20204;-46
2022/07/10 06:51:34;;;;;;;1.77;0.95;;;19.60;43.00;;;;;;5052397;28;20415;-45
2022/07/10 06:54:00;;;;;;;4.75;1.38;;;19.70;42.90;;;;;;5052106;28;20252;-45
2022/07/10 06:56:27;;;;;;;1.80;0.70;;;19.70;42.30;;;;;;5051593;28;20300;-45
2022/07/10 06:58:52;;;;;;;2.13;0.70;;;19.70;42.30;;;;;;5052062;28;20473;-46
2022/07/10 07:01:18;;;;;;;3.50;0.97;;;19.70;40.90;;;;;;5051967;28;20173;-45
2022/07/10 07:03:44;;;;;;;1.80;0.80;;;19.60;41.50;;;;;;5051554;28;20396;-45
2022/07/10 07:06:10;;;;;;;2.33;0.63;;;19.60;41.70;;;;;;5051124;28;20208;-45
2022/07/10 07:08:36;;;;;;;2.80;1.15;;;19.60;41.90;;;;;;5052037;28;20595;-46
2022/07/10 07:11:02;;;;;;;2.20;0.95;;;19.60;41.70;;;;;;5051830;28;20654;-45
2022/07/10 07:13:28;;;;;;;3.88;0.80;;;19.60;41.70;;;;;;5051788;28;20173;-45
2022/07/10 07:15:59;;;;;;;1.87;0.83;;;19.60;41.00;;;;;;5051503;28;20312;-46
2022/07/10 07:18:37;;;;;;;1.50;0.75;;;19.60;41.60;;;;;;5052160;28;20395;-45
2022/07/10 07:23:47;;;;;;;3.00;1.15;;;19.50;41.20;;;;;;5052101;28;20260;-45
2022/07/10 07:26:12;;;;;;;1.80;1.00;;;19.60;41.20;;;;;;5051507;28;20272;-44
2022/07/10 07:28:38;;;;;;;1.60;0.80;;;19.60;40.90;;;;;;5051728;28;20538;-46
2022/07/10 07:31:04;;;;;;;5.40;1.33;;;19.70;42.10;;;;;;5051972;28;20201;-45
2022/07/10 07:33:30;;;;;;;1.87;0.73;;;19.80;42.30;;;;;;5051964;28;20259;-46
2022/07/10 07:35:56;;;;;;;3.20;0.90;;;19.90;42.50;;;;;;5051310;28;20466;-45
2022/07/10 07:38:22;;;;;;;4.10;1.20;;;20.00;40.80;;;;;;5051674;28;20461;-45
2022/07/10 07:40:48;;;;;;;1.50;0.68;;;20.10;41.10;;;;;;5051830;28;20461;-45
2022/07/10 07:43:13;;;;;;;2.20;0.97;;;20.20;41.50;;;;;;5051430;28;20536;-45
2022/07/10 07:45:39;;;;;;;1.97;0.77;;;20.20;41.40;;;;;;5051535;28;20177;-44
2022/07/10 07:48:05;;;;;;;1.93;0.70;;;20.30;41.00;;;;;;5051614;28;20196;-45
2022/07/10 07:50:33;;;;;;;6.37;0.90;;;20.40;41.00;;;;;;5051535;28;20251;-44
2022/07/10 07:53:04;;;;;;;2.10;0.77;;;20.40;41.20;;;;;;5051494;28;21182;-45
2022/07/10 07:55:33;;;;;;;1.50;0.63;;;20.50;41.10;;;;;;5051197;28;20221;-44
2022/07/10 07:57:59;;;;;;;1.50;0.70;;;20.60;40.90;;;;;;5051391;28;20529;-46
2022/07/10 08:00:27;;;;;;;1.77;1.03;;;20.70;41.30;;;;;;5051617;28;20174;-46
2022/07/10 08:02:54;;;;;;;2.05;0.85;;;20.90;41.40;;;;;;5051377;28;20399;-46
2022/07/10 08:05:20;;;;;;;2.85;0.93;;;21.00;41.00;;;;;;5051365;28;20185;-45
2022/07/10 08:07:51;;;;;;;2.17;0.80;;;21.10;39.50;;;;;;5051123;28;20200;-46
2022/07/10 08:10:20;;;;;;;2.38;0.73;;;21.10;39.30;;;;;;5051297;28;20396;-45
2022/07/10 08:12:46;;;;;;;3.22;1.00;;;21.20;39.60;;;;;;5051327;28;20632;-45
2022/07/10 08:15:36;;;;;;;2.13;0.73;;;21.20;39.20;;;;;;5051462;28;20288;-46
2022/07/10 08:18:04;;;;;;;2.40;0.98;;;21.20;39.30;;;;;;5053894;28;20185;-45
2022/07/10 08:20:30;;;;;;;4.25;0.80;;;21.20;38.90;;;;;;5057717;28;20641;-44
2022/07/10 08:22:57;;;;;;;1.50;0.70;;;21.10;39.60;;;;;;5057630;28;20173;-44
2022/07/10 08:25:23;;;;;;;2.10;1.00;;;21.20;39.60;;;;;;5057765;28;20181;-44
2022/07/10 08:27:49;;;;;;;2.75;0.90;;;21.20;39.80;;;;;;5057784;28;20201;-45
2022/07/10 08:30:15;;;;;;;2.38;1.00;;;21.20;38.80;;;;;;5058218;28;20215;-43
2022/07/10 08:32:41;;;;;;;1.75;0.75;;;21.20;38.80;;;;;;5058036;28;20548;-45
2022/07/10 08:35:08;;;;;;;4.50;1.80;;;21.30;38.80;;;;;;5056167;28;20189;-46
2022/07/10 08:37:42;;;;;;;1.80;0.68;;;21.30;39.10;;;;;;5054196;28;20943;-45
2022/07/10 08:40:10;;;;;;;2.33;1.85;;;21.50;37.50;;;;;;5054465;28;20169;-45
2022/07/10 08:42:35;;;;;;;1.80;0.90;;;21.50;38.10;;;;;;5054183;28;20169;-46
2022/07/10 08:45:02;;;;;;;3.13;1.03;;;21.40;37.20;;;;;;5054266;28;20491;-46
2022/07/10 08:47:30;;;;;;;2.13;1.05;;;21.30;37.50;;;;;;5054093;28;20243;-46
2022/07/10 08:49:56;;;;;;;1.50;0.70;;;21.20;36.50;;;;;;5054230;28;20181;-45
2022/07/10 08:52:31;;;;;;;2.10;0.90;;;21.10;37.20;;;;;;5054386;28;20247;-45
2022/07/10 08:54:57;;;;;;;5.88;2.38;;;21.00;36.90;;;;;;5054308;28;20837;-45
2022/07/10 08:57:24;;;;;;;2.33;0.70;;;20.80;37.60;;;;;;5053893;28;20185;-45
2022/07/10 08:59:50;;;;;;;5.57;1.03;;;20.70;38.60;;;;;;5054246;28;20415;-45
2022/07/10 09:02:16;;;;;;;3.13;1.57;;;20.60;38.10;;;;;;5054025;28;20763;-44
2022/07/10 09:04:42;;;;;;;2.87;1.40;;;20.40;38.80;;;;;;5054027;28;20396;-45
2022/07/10 09:07:08;;;;;;;2.50;1.30;;;20.30;39.50;;;;;;5053693;28;20278;-45
2022/07/10 09:09:54;;;;;;;2.70;1.10;;;20.30;39.80;;;;;;5054087;28;20173;-45
2022/07/10 09:12:21;;;;;;;3.65;1.00;;;20.40;40.20;;;;;;5053883;28;20222;-46
2022/07/10 09:14:47;;;;;;;2.20;0.80;;;20.40;39.50;;;;;;5053611;28;20185;-46
2022/07/10 09:17:13;;;;;;;3.50;1.27;;;20.40;39.70;;;;;;5053446;28;20213;-45
2022/07/10 09:19:39;;;;;;;4.43;1.10;;;20.40;39.20;;;;;;5053941;28;20854;-45
2022/07/10 09:22:09;;;;;;;3.13;1.63;;;20.40;38.60;;;;;;5053841;28;20177;-45
2022/07/10 09:24:43;;;;;;;5.60;1.20;;;20.40;38.30;;;;;;5053618;28;20174;-45
2022/07/10 09:27:10;;;;;;;2.00;0.70;;;20.50;39.20;;;;;;5052427;28;20201;-46
2022/07/10 09:29:57;;;;;;;2.90;0.98;;;20.60;39.20;;;;;;5053412;28;20181;-45
2022/07/10 09:32:24;;;;;;;3.28;0.90;;;20.80;38.80;;;;;;5053784;28;20498;-44
2022/07/10 09:37:39;;;;;;;2.58;0.82;;;21.00;37.90;;;;;;5053430;28;20204;-45
2022/07/10 09:40:07;;;;;;;3.65;1.98;;;21.10;37.60;;;;;;5053476;28;20549;-46
2022/07/10 09:42:38;;;;;;;1.70;0.70;;;21.10;37.00;;;;;;5053449;28;20177;-46
2022/07/10 09:45:12;;;;;;;2.53;1.23;;;21.10;37.40;;;;;;5053106;28;20268;-45
2022/07/10 09:47:40;;;;;;;2.00;0.88;;;21.00;36.40;;;;;;5052984;28;20196;-46
2022/07/10 09:50:28;;;;;;;4.40;0.90;;;20.90;36.40;;;;;;5052988;28;20739;-45
2022/07/10 09:52:59;;;;;;;2.83;1.05;;;20.90;37.30;;;;;;5053057;28;20180;-45
2022/07/10 09:55:26;;;;;;;1.67;0.95;;;20.90;36.60;;;;;;5053022;28;20205;-43
2022/07/10 09:58:06;;;;;;;4.50;1.10;;;20.90;36.80;;;;;;5052806;28;20234;-45
2022/07/10 10:00:34;;;;;;;3.60;0.98;;;20.90;36.50;;;;;;5052918;28;20184;-46
2022/07/10 10:03:05;;;;;;;4.93;1.38;;;21.00;36.70;;;;;;5053233;28;20181;-46
2022/07/10 10:05:45;;;;;;;2.60;1.58;;;21.10;37.20;;;;;;5052630;28;20187;-45
2022/07/10 10:08:17;;;;;;;2.23;1.03;;;21.20;37.40;;;;;;5053052;28;20169;-45
2022/07/10 10:10:48;;;;;;;2.95;1.00;;;21.30;37.20;;;;;;5052721;28;20407;-45
2022/07/10 10:13:23;;;;;;;2.20;1.10;;;21.50;36.30;;;;;;5052694;28;20177;-45
2022/07/10 10:15:51;;;;;;;4.80;1.00;;;21.70;34.70;;;;;;5052374;28;20442;-43
2022/07/10 10:18:22;;;;;;;6.50;0.90;;;21.70;33.90;;;;;;5052657;28;20172;-44
2022/07/10 10:20:50;;;;;;;1.83;1.00;;;21.80;34.50;;;;;;5052808;28;20407;-46
2022/07/10 10:23:20;;;;;;;6.27;1.77;;;21.80;32.90;;;;;;5034959;28;20895;-46
2022/07/10 10:25:46;;;;;;;2.10;0.97;;;21.80;32.80;;;;;;5052115;28;20404;-46
2022/07/10 10:28:15;;;;;;;2.77;1.37;;;21.70;33.90;;;;;;5052689;28;20408;-46
2022/07/10 10:30:43;;;;;;;2.40;1.30;;;21.70;34.20;;;;;;5052563;28;20465;-45
2022/07/10 10:33:34;;;;;;;3.10;1.20;;;21.70;34.50;;;;;;5052384;28;20203;-45
2022/07/10 10:36:02;;;;;;;1.83;0.90;;;21.70;35.00;;;;;;5051886;28;20483;-46
2022/07/10 10:38:49;;;;;;;3.33;1.23;;;21.70;33.20;;;;;;5052217;28;20424;-45
2022/07/10 10:41:38;;;;;;;3.40;1.67;;;21.70;33.80;;;;;;5052334;28;20407;-44
2022/07/10 10:44:13;;;;;;;3.47;0.93;;;21.70;33.70;;;;;;5052129;28;20400;-46
2022/07/10 10:46:53;;;;;;;3.47;1.33;;;21.60;34.00;;;;;;5052083;28;20203;-45
2022/07/10 10:49:21;;;;;;;1.90;1.17;;;21.50;34.80;;;;;;5052126;28;20506;-45
2022/07/10 10:52:06;;;;;;;3.57;1.27;;;21.50;34.70;;;;;;5052021;28;20403;-45
2022/07/10 10:54:55;;;;;;;2.93;0.93;;;21.60;35.00;;;;;;5052247;28;20385;-46
2022/07/10 10:57:22;;;;;;;2.40;1.00;;;21.70;35.00;;;;;;5051666;28;20440;-44
2022/07/10 10:59:55;;;;;;;2.80;1.23;;;21.70;34.30;;;;;;5051997;28;20416;-45
2022/07/10 11:02:25;;;;;;;2.15;0.90;;;21.80;33.80;;;;;;5051941;28;20435;-46
2022/07/10 11:04:51;;;;;;;2.90;0.87;;;21.80;33.70;;;;;;5052147;28;20585;-46
2022/07/10 11:07:50;;;;;;;3.00;1.03;;;21.80;34.00;;;;;;5051800;28;20534;-44
2022/07/10 11:10:35;;;;;;;5.20;1.23;;;21.80;34.10;;;;;;5052000;28;20408;-46
2022/07/10 11:13:12;;;;;;;1.50;0.60;;;21.70;34.20;;;;;;5052505;28;20407;-45
2022/07/10 11:15:43;;;;;;;3.05;1.00;;;21.70;34.00;;;;;;5051752;28;20435;-45
2022/07/10 11:18:10;;;;;;;2.93;1.07;;;21.60;33.70;;;;;;5051982;28;20585;-45
2022/07/10 11:20:44;;;;;;;4.82;0.90;;;21.60;34.10;;;;;;5051796;28;20408;-45
2022/07/10 11:23:48;;;;;;;1.90;1.00;;;21.60;34.30;;;;;;5051778;28;20576;-46
2022/07/10 11:26:23;;;;;;;2.55;1.00;;;21.60;33.60;;;;;;5051375;28;20931;-45
2022/07/10 11:29:05;;;;;;;3.70;1.27;;;21.50;34.10;;;;;;5052110;28;20181;-45
2022/07/10 11:31:34;;;;;;;2.40;1.15;;;21.50;34.50;;;;;;5051946;28;20204;-46
2022/07/10 11:34:00;;;;;;;4.70;1.80;;;21.50;35.20;;;;;;5051627;28;20665;-46
2022/07/10 11:36:33;;;;;;;5.27;1.40;;;21.60;34.80;;;;;;5033327;28;20459;-45
2022/07/10 11:39:07;;;;;;;2.83;1.03;;;21.70;33.20;;;;;;5051611;28;20165;-46
2022/07/10 11:41:34;;;;;;;2.20;1.13;;;21.80;34.30;;;;;;5051440;28;20423;-45
2022/07/10 11:44:03;;;;;;;1.93;0.93;;;21.90;34.30;;;;;;5051829;28;20404;-46
2022/07/10 11:46:33;;;;;;;4.63;1.40;;;22.10;33.10;;;;;;5051329;28;20847;-46
2022/07/10 11:49:04;;;;;;;3.00;1.63;;;22.30;33.60;;;;;;5051359;28;20490;-46
2022/07/10 11:51:33;;;;;;;3.03;1.30;;;22.40;33.00;;;;;;5053812;28;20408;-46
2022/07/10 11:54:06;;;;;;;4.43;1.57;;;22.50;33.40;;;;;;5055549;28;20415;-44
2022/07/10 11:56:34;;;;;;;6.80;1.17;;;22.60;33.10;;;;;;5055140;28;20534;-45
2022/07/10 11:59:06;;;;;;;2.47;1.30;;;22.60;34.20;;;;;;5055243;28;20427;-45
2022/07/10 12:01:47;;;;;;;3.30;1.53;;;22.60;33.40;;;;;;5055549;28;20416;-45
2022/07/10 12:04:16;;;;;;;4.90;1.43;;;22.50;33.10;;;;;;5055120;28;20407;-45
2022/07/10 12:06:46;;;;;;;3.80;1.10;;;22.30;32.50;;;;;;5054865;28;20436;-45
2022/07/10 12:09:14;;;;;;;2.10;1.27;;;22.20;32.40;;;;;;5055326;28;20763;-45
2022/07/10 12:11:42;;;;;;;7.23;1.47;;;22.10;33.30;;;;;;5054962;28;20436;-46
2022/07/10 12:14:18;;;;;;;1.90;1.20;;;22.00;33.30;;;;;;5054949;28;20922;-45
2022/07/10 12:16:45;;;;;;;2.13;1.40;;;21.90;33.30;;;;;;5054405;28;20221;-44
2022/07/10 12:19:14;;;;;;;3.53;1.40;;;21.70;32.90;;;;;;5054765;28;20412;-44
2022/07/10 12:21:45;;;;;;;6.37;1.80;;;21.60;32.60;;;;;;5054865;28;20404;-46
2022/07/10 12:24:12;;;;;;;4.83;2.10;;;21.50;32.80;;;;;;5054714;28;20414;-46
2022/07/10 12:26:41;;;;;;;2.80;1.47;;;21.40;33.00;;;;;;5054352;28;20424;-44
2022/07/10 12:29:18;;;;;;;2.27;1.20;;;21.40;32.90;;;;;;5054850;28;20515;-44
2022/07/10 12:31:46;;;;;;;3.50;1.17;;;21.40;33.20;;;;;;5054650;28;20392;-45
2022/07/10 12:34:13;;;;;;;2.20;1.17;;;21.30;33.40;;;;;;5054708;28;20407;-46
2022/07/10 12:36:51;;;;;;;4.07;1.40;;;21.30;33.80;;;;;;5054239;28;20455;-45
2022/07/10 12:39:22;;;;;;;2.53;1.55;;;21.40;33.80;;;;;;5054358;28;20410;-46
2022/07/10 12:42:03;;;;;;;3.70;1.60;;;21.30;34.50;;;;;;5054483;28;20659;-45
2022/07/10 12:44:39;;;;;;;2.33;1.20;;;21.40;33.30;;;;;;5054439;28;20389;-45
2022/07/10 12:47:14;;;;;;;3.55;1.48;;;21.40;33.90;;;;;;5054300;28;20502;-45
2022/07/10 12:49:55;;;;;;;3.03;1.58;;;21.40;33.80;;;;;;5054285;28;20298;-44
2022/07/10 12:52:22;;;;;;;5.82;2.55;;;21.50;34.50;;;;;;5054302;28;20175;-41
2022/07/10 12:54:48;;;;;;;4.30;1.17;;;21.60;34.70;;;;;;5054022;28;20161;-43
2022/07/10 12:57:14;;;;;;;2.60;1.40;;;21.70;33.90;;;;;;5053792;28;20423;-43
2022/07/10 12:59:41;;;;;;;2.63;1.27;;;21.90;34.00;;;;;;5054350;28;20403;-44
2022/07/10 13:02:19;;;;;;;2.93;1.00;;;22.00;33.40;;;;;;5053881;28;20173;-42
2022/07/10 13:04:55;;;;;;;2.40;1.33;;;22.20;33.10;;;;;;5054110;28;20396;-41